Time;durP1;ratioP1;P1;durP2;ratioP2;P2;SDS_P1;SDS_P2;PMS_P1;PMS_P2;Temp;Humidity;BMP_temperature;BMP_pressure;BME280_temperature;BME280_humidity;BME280_pressure;Samples;Min_cycle;Max_cycle;Signal;HPM_P1;HPM_P2
2023/06/11 00:01:26;;;;;;;8.18;4.55;;;;;;;;;;5046818;28;20060;-65
2023/06/11 00:03:53;;;;;;;7.60;4.70;;;;;;;;;;5057672;28;20115;-65
2023/06/11 00:06:22;;;;;;;9.10;4.15;;;;;;;;;;5053051;28;20110;-65
2023/06/11 00:08:48;;;;;;;8.10;4.50;;;;;;;;;;5042190;28;20048;-65
2023/06/11 00:11:15;;;;;;;8.50;4.57;;;;;;;;;;5052107;28;20076;-65
2023/06/11 00:13:43;;;;;;;8.55;4.13;;;;;;;;;;5053730;28;20142;-64
2023/06/11 00:16:11;;;;;;;11.45;4.72;;;;;;;;;;5055492;28;20052;-65
2023/06/11 00:18:40;;;;;;;9.40;4.47;;;;;;;;;;5047035;28;20057;-65
2023/06/11 00:21:07;;;;;;;10.45;4.18;;;;;;;;;;5055193;28;20057;-64
2023/06/11 00:23:34;;;;;;;9.80;4.50;;;;;;;;;;5052573;28;20053;-65
2023/06/11 00:26:01;;;;;;;8.32;4.10;;;;;;;;;;5051769;28;20134;-65
2023/06/11 00:31:45;;;;;;;11.25;4.07;;;;;;;;;;4900911;28;20063;-68
2023/06/11 00:34:12;;;;;;;11.15;4.47;;;;;;;;;;5014340;28;20053;-64
2023/06/11 00:36:40;;;;;;;7.47;3.92;;;;;;;;;;5034988;28;20073;-64
2023/06/11 00:39:06;;;;;;;7.85;4.32;;;;;;;;;;5042487;28;20053;-66
2023/06/11 00:41:33;;;;;;;10.82;5.10;;;;;;;;;;5033667;28;20052;-64
2023/06/11 00:44:00;;;;;;;9.60;4.60;;;;;;;;;;5058965;28;20085;-64
2023/06/11 00:46:26;;;;;;;11.57;4.57;;;;;;;;;;5044793;28;20041;-65
2023/06/11 00:48:55;;;;;;;8.40;4.30;;;;;;;;;;5023067;28;20052;-64
2023/06/11 00:51:22;;;;;;;16.45;4.50;;;;;;;;;;5032764;28;20049;-67
2023/06/11 00:53:51;;;;;;;13.27;4.35;;;;;;;;;;5044380;28;20061;-64
2023/06/11 00:56:19;;;;;;;11.35;5.00;;;;;;;;;;5044577;28;20052;-66
2023/06/11 00:58:45;;;;;;;;;;;;;;;;;;5016763;28;20049;-65
2023/06/11 01:01:17;;;;;;;8.95;4.28;;;;;;;;;;5023895;28;19924;-64
2023/06/11 01:03:44;;;;;;;7.72;4.47;;;;;;;;;;5020673;28;20052;-65
2023/06/11 01:06:17;;;;;;;10.07;5.30;;;;;;;;;;5001794;28;20049;-65
2023/06/11 01:08:43;;;;;;;19.52;9.52;;;;;;;;;;5030927;28;20049;-65
2023/06/11 01:11:13;;;;;;;10.57;6.38;;;;;;;;;;5043693;28;20113;-65
2023/06/11 01:13:40;;;;;;;10.13;4.70;;;;;;;;;;5009794;28;20144;-65
2023/06/11 01:16:10;;;;;;;9.82;4.40;;;;;;;;;;5043960;28;20061;-65
2023/06/11 01:18:40;;;;;;;9.48;4.45;;;;;;;;;;5038573;28;20064;-65
2023/06/11 01:21:09;;;;;;;12.23;4.15;;;;;;;;;;5042674;28;20053;-65
2023/06/11 01:23:41;;;;;;;8.55;4.10;;;;;;;;;;5016122;28;20151;-65
2023/06/11 01:26:16;;;;;;;7.20;4.05;;;;;;;;;;5059119;28;20053;-65
2023/06/11 01:28:45;;;;;;;8.65;4.72;;;;;;;;;;5009434;28;20048;-65
2023/06/11 01:31:14;;;;;;;9.88;4.68;;;;;;;;;;5022031;28;20049;-65
2023/06/11 01:33:41;;;;;;;8.98;4.82;;;;;;;;;;5014538;28;20061;-65
2023/06/11 01:36:10;;;;;;;10.43;4.18;;;;;;;;;;5024565;28;20068;-64
2023/06/11 01:38:41;;;;;;;8.95;4.65;;;;;;;;;;5017244;28;20079;-65
2023/06/11 01:41:08;;;;;;;10.05;4.60;;;;;;;;;;5032524;28;20064;-65
2023/06/11 01:43:34;;;;;;;8.55;4.65;;;;;;;;;;5031942;28;20106;-65
2023/06/11 01:46:02;;;;;;;10.55;4.75;;;;;;;;;;5043065;28;20057;-65
2023/06/11 01:48:28;;;;;;;8.80;4.55;;;;;;;;;;5020997;28;20057;-65
2023/06/11 01:50:55;;;;;;;11.65;5.18;;;;;;;;;;5042592;28;20055;-65
2023/06/11 01:53:21;;;;;;;10.60;4.80;;;;;;;;;;5036991;28;20080;-67
2023/06/11 01:55:48;;;;;;;13.05;4.95;;;;;;;;;;5021831;28;20053;-65
2023/06/11 01:58:16;;;;;;;11.18;4.38;;;;;;;;;;5040394;28;20057;-65
2023/06/11 02:00:42;;;;;;;;;;;;;;;;;;5052680;28;20053;-65
2023/06/11 02:03:11;;;;;;;9.80;4.30;;;;;;;;;;5023298;28;19930;-65
2023/06/11 02:05:37;;;;;;;8.93;4.90;;;;;;;;;;5002502;28;20049;-65
2023/06/11 02:08:04;;;;;;;9.63;4.68;;;;;;;;;;5034367;28;20073;-65
2023/06/11 02:10:30;;;;;;;7.72;4.55;;;;;;;;;;5020627;28;20049;-64
2023/06/11 02:12:57;;;;;;;11.32;4.65;;;;;;;;;;5042422;28;20125;-64
2023/06/11 02:15:23;;;;;;;8.43;4.90;;;;;;;;;;5035316;28;20076;-64
2023/06/11 02:17:49;;;;;;;7.90;4.45;;;;;;;;;;5039928;28;20088;-65
2023/06/11 02:20:17;;;;;;;7.80;3.67;;;;;;;;;;5030678;28;20083;-65
2023/06/11 02:22:44;;;;;;;7.97;4.30;;;;;;;;;;5042123;28;20080;-64
2023/06/11 02:25:10;;;;;;;8.32;4.95;;;;;;;;;;5016389;28;20060;-65
2023/06/11 02:27:37;;;;;;;11.38;4.97;;;;;;;;;;5041643;28;20117;-64
2023/06/11 02:30:04;;;;;;;8.35;4.15;;;;;;;;;;5037575;28;20045;-66
2023/06/11 02:34:59;;;;;;;6.82;4.35;;;;;;;;;;4932990;29;28725;-65
2023/06/11 02:37:27;;;;;;;8.77;4.28;;;;;;;;;;4933710;28;20073;-66
2023/06/11 02:39:53;;;;;;;10.82;5.32;;;;;;;;;;4931051;29;20142;-66
2023/06/11 02:42:20;;;;;;;13.65;4.05;;;;;;;;;;4933789;28;20055;-68
2023/06/11 02:44:46;;;;;;;14.07;5.50;;;;;;;;;;4934274;28;20059;-67
2023/06/11 02:47:13;;;;;;;8.88;4.90;;;;;;;;;;4933729;28;20190;-67
2023/06/11 02:49:39;;;;;;;9.30;4.53;;;;;;;;;;4936789;28;20059;-65
2023/06/11 02:52:06;;;;;;;8.43;4.70;;;;;;;;;;4914795;28;20419;-66
2023/06/11 02:54:34;;;;;;;14.15;5.03;;;;;;;;;;4935906;28;20146;-66
2023/06/11 02:57:03;;;;;;;8.45;4.50;;;;;;;;;;4918971;28;20474;-66
2023/06/11 02:59:29;;;;;;;9.65;4.90;;;;;;;;;;4932121;28;20047;-65
2023/06/11 03:01:56;;;;;;;8.40;4.90;;;;;;;;;;4930985;28;20125;-65
2023/06/11 03:04:22;;;;;;;9.68;4.88;;;;;;;;;;4933114;28;20047;-66
2023/06/11 03:06:48;;;;;;;15.48;5.22;;;;;;;;;;4918141;28;20067;-65
2023/06/11 03:09:15;;;;;;;8.85;4.70;;;;;;;;;;4914307;29;20107;-66
2023/06/11 03:11:43;;;;;;;10.18;5.22;;;;;;;;;;4919127;29;20142;-65
2023/06/11 03:14:09;;;;;;;7.35;3.72;;;;;;;;;;4920328;29;20074;-65
2023/06/11 03:16:36;;;;;;;9.60;4.00;;;;;;;;;;4927620;29;20055;-65
2023/06/11 03:19:02;;;;;;;10.00;4.82;;;;;;;;;;4940073;29;20150;-66
2023/06/11 03:21:30;;;;;;;8.95;4.45;;;;;;;;;;4933558;29;20051;-67
2023/06/11 03:23:56;;;;;;;9.35;4.63;;;;;;;;;;4915479;28;20129;-66
2023/06/11 03:26:25;;;;;;;7.40;4.35;;;;;;;;;;4931093;28;20182;-66
2023/06/11 03:28:54;;;;;;;8.73;4.32;;;;;;;;;;4933699;29;20059;-66
2023/06/11 03:31:20;;;;;;;9.30;5.18;;;;;;;;;;4925181;29;20067;-64
2023/06/11 03:33:47;;;;;;;10.30;4.75;;;;;;;;;;4908483;29;20154;-67
2023/06/11 03:36:16;;;;;;;9.77;4.90;;;;;;;;;;4913280;29;20130;-68
2023/06/11 03:38:42;;;;;;;10.23;4.15;;;;;;;;;;4912214;29;20215;-68
2023/06/11 03:41:10;;;;;;;8.70;4.25;;;;;;;;;;4928872;29;20055;-67
2023/06/11 03:43:37;;;;;;;10.73;3.80;;;;;;;;;;4936347;28;20059;-65
2023/06/11 03:46:05;;;;;;;8.82;3.97;;;;;;;;;;4930551;28;20146;-66
2023/06/11 03:48:31;;;;;;;10.65;4.43;;;;;;;;;;4934582;28;20074;-65
2023/06/11 03:51:00;;;;;;;12.15;4.45;;;;;;;;;;4939282;28;20101;-65
2023/06/11 03:53:26;;;;;;;10.00;4.88;;;;;;;;;;4938181;28;20051;-67
2023/06/11 03:55:53;;;;;;;6.07;3.47;;;;;;;;;;4932016;28;20138;-65
2023/06/11 03:58:20;;;;;;;7.60;4.10;;;;;;;;;;4938166;29;20055;-67
2023/06/11 04:00:46;;;;;;;7.57;3.97;;;;;;;;;;4944817;28;20055;-67
2023/06/11 04:03:14;;;;;;;10.52;4.68;;;;;;;;;;4923647;29;20047;-67
2023/06/11 04:05:41;;;;;;;11.68;4.97;;;;;;;;;;4927622;28;20126;-66
2023/06/11 04:08:07;;;;;;;13.20;4.90;;;;;;;;;;4935691;28;20147;-67
2023/06/11 04:10:37;;;;;;;8.15;4.47;;;;;;;;;;4938626;28;20138;-67
2023/06/11 04:13:03;;;;;;;10.80;4.78;;;;;;;;;;4943105;29;20059;-67
2023/06/11 04:15:30;;;;;;;8.07;4.20;;;;;;;;;;4929805;28;20099;-67
2023/06/11 04:17:56;;;;;;;9.00;4.80;;;;;;;;;;4900394;29;20058;-68
2023/06/11 04:20:24;;;;;;;9.40;4.72;;;;;;;;;;4918658;28;20155;-66
2023/06/11 04:22:51;;;;;;;8.43;5.00;;;;;;;;;;4904578;28;20056;-67
2023/06/11 04:25:18;;;;;;;8.57;4.80;;;;;;;;;;4905140;29;20122;-64
2023/06/11 04:27:44;;;;;;;10.82;4.90;;;;;;;;;;4943428;29;20063;-65
2023/06/11 04:30:12;;;;;;;8.27;4.10;;;;;;;;;;4932388;28;20070;-65
2023/06/11 04:32:40;;;;;;;8.93;3.65;;;;;;;;;;4943889;28;20047;-64
2023/06/11 04:35:07;;;;;;;8.55;3.80;;;;;;;;;;4917513;28;20343;-67
2023/06/11 04:37:38;;;;;;;9.68;4.65;;;;;;;;;;4940708;28;20266;-65
2023/06/11 04:40:09;;;;;;;6.88;3.75;;;;;;;;;;4934982;28;20152;-68
2023/06/11 04:42:35;;;;;;;7.68;3.97;;;;;;;;;;4941581;28;20069;-67
2023/06/11 04:45:05;;;;;;;9.35;4.72;;;;;;;;;;4939295;29;20150;-67
2023/06/11 04:47:33;;;;;;;8.63;4.43;;;;;;;;;;4922141;29;20081;-66
2023/06/11 04:50:03;;;;;;;7.70;4.03;;;;;;;;;;4939093;29;20054;-68
2023/06/11 04:52:31;;;;;;;8.27;3.22;;;;;;;;;;4939429;28;20079;-68
2023/06/11 04:54:59;;;;;;;9.20;4.65;;;;;;;;;;4928334;28;20121;-67
2023/06/11 04:57:25;;;;;;;8.48;4.22;;;;;;;;;;4938731;28;20063;-65
2023/06/11 04:59:52;;;;;;;7.72;4.57;;;;;;;;;;4921681;29;20051;-68
2023/06/11 05:02:18;;;;;;;11.32;4.78;;;;;;;;;;4933796;28;20063;-65
2023/06/11 05:04:49;;;;;;;6.30;3.60;;;;;;;;;;4938657;28;20214;-66
2023/06/11 05:07:17;;;;;;;7.65;4.20;;;;;;;;;;4938621;28;20179;-65
2023/06/11 05:09:44;;;;;;;9.63;3.80;;;;;;;;;;4938743;28;20562;-65
2023/06/11 05:12:12;;;;;;;9.20;3.85;;;;;;;;;;4903177;29;20233;-65
2023/06/11 05:14:38;;;;;;;6.43;3.35;;;;;;;;;;4925270;28;20122;-65
2023/06/11 05:17:05;;;;;;;7.38;3.83;;;;;;;;;;4926537;28;20163;-65
2023/06/11 05:19:31;;;;;;;10.95;4.20;;;;;;;;;;4939328;28;20062;-65
2023/06/11 05:22:00;;;;;;;9.02;4.57;;;;;;;;;;4932919;29;20153;-65
2023/06/11 05:24:29;;;;;;;8.52;4.57;;;;;;;;;;4941001;29;20059;-65
2023/06/11 05:26:56;;;;;;;8.15;4.13;;;;;;;;;;4937324;29;20047;-65
2023/06/11 05:29:25;;;;;;;7.35;4.10;;;;;;;;;;4939138;28;20054;-66
2023/06/11 05:31:51;;;;;;;7.93;4.07;;;;;;;;;;4939956;29;20059;-66
2023/06/11 05:34:22;;;;;;;9.20;4.72;;;;;;;;;;4924806;29;20051;-67
2023/06/11 05:36:49;;;;;;;11.48;4.35;;;;;;;;;;4938093;29;20123;-66
2023/06/11 05:39:16;;;;;;;8.00;4.35;;;;;;;;;;4939203;28;20074;-66
2023/06/11 05:41:43;;;;;;;7.85;3.60;;;;;;;;;;4936769;29;20082;-66
2023/06/11 05:44:09;;;;;;;7.78;4.32;;;;;;;;;;4935186;28;20145;-66
2023/06/11 05:46:37;;;;;;;7.93;4.25;;;;;;;;;;4937769;29;20197;-65
2023/06/11 05:49:05;;;;;;;8.05;3.65;;;;;;;;;;4921288;29;20051;-65
2023/06/11 05:51:32;;;;;;;6.57;3.38;;;;;;;;;;4939340;28;20059;-66
2023/06/11 05:54:01;;;;;;;10.02;4.07;;;;;;;;;;4929465;28;20062;-65
2023/06/11 05:56:29;;;;;;;9.60;4.40;;;;;;;;;;4939271;28;20063;-65
2023/06/11 05:58:55;;;;;;;6.22;3.55;;;;;;;;;;4940994;28;20066;-66
2023/06/11 06:01:22;;;;;;;12.95;4.53;;;;;;;;;;4922803;29;20067;-68
2023/06/11 06:03:50;;;;;;;6.07;3.30;;;;;;;;;;4919025;28;20823;-68
2023/06/11 06:06:22;;;;;;;7.30;3.75;;;;;;;;;;4937153;28;20051;-68
2023/06/11 06:08:48;;;;;;;7.95;3.88;;;;;;;;;;4921119;28;20050;-68
2023/06/11 06:11:14;;;;;;;8.27;4.22;;;;;;;;;;4940016;29;20061;-68
2023/06/11 06:13:41;;;;;;;7.25;3.67;;;;;;;;;;4939612;29;20061;-68
2023/06/11 06:16:07;;;;;;;6.18;3.60;;;;;;;;;;4913154;28;20051;-68
2023/06/11 06:18:36;;;;;;;11.80;4.63;;;;;;;;;;4939517;29;20058;-68
2023/06/11 06:21:08;;;;;;;11.30;5.20;;;;;;;;;;4923031;29;20056;-67
2023/06/11 06:23:34;;;;;;;10.75;4.38;;;;;;;;;;4941993;29;20067;-67
2023/06/11 06:26:01;;;;;;;9.27;4.25;;;;;;;;;;4920148;28;20083;-69
2023/06/11 06:28:28;;;;;;;9.90;4.32;;;;;;;;;;4924033;29;20066;-68
2023/06/11 06:30:58;;;;;;;9.85;4.53;;;;;;;;;;4937073;28;20048;-68
2023/06/11 06:33:24;;;;;;;8.43;3.80;;;;;;;;;;4919661;29;20059;-69
2023/06/11 06:35:51;;;;;;;7.18;3.72;;;;;;;;;;4912229;29;20075;-70
2023/06/11 06:38:19;;;;;;;9.82;4.82;;;;;;;;;;4931883;28;20075;-68
2023/06/11 06:40:45;;;;;;;7.45;4.10;;;;;;;;;;4919663;29;20102;-68
2023/06/11 06:43:13;;;;;;;9.23;4.20;;;;;;;;;;4920814;29;20055;-68
2023/06/11 06:45:40;;;;;;;9.10;4.80;;;;;;;;;;4915628;29;20059;-68
2023/06/11 06:48:06;;;;;;;14.43;5.32;;;;;;;;;;4914019;29;20254;-68
2023/06/11 06:50:33;;;;;;;7.20;4.05;;;;;;;;;;4932028;28;20052;-68
2023/06/11 06:52:59;;;;;;;7.57;4.50;;;;;;;;;;4919633;29;20119;-68
2023/06/11 06:55:27;;;;;;;6.72;3.95;;;;;;;;;;4917649;28;20055;-68
2023/06/11 06:57:55;;;;;;;8.95;4.15;;;;;;;;;;4915870;29;20059;-67
2023/06/11 07:00:22;;;;;;;7.00;4.00;;;;;;;;;;4917617;29;20097;-67
2023/06/11 07:02:49;;;;;;;8.10;5.10;;;;;;;;;;4935308;28;20062;-66
2023/06/11 07:05:15;;;;;;;10.05;4.22;;;;;;;;;;4915546;29;20142;-67
2023/06/11 07:07:43;;;;;;;11.15;4.05;;;;;;;;;;4917362;29;20063;-67
2023/06/11 07:10:10;;;;;;;10.40;5.53;;;;;;;;;;4915557;29;20199;-66
2023/06/11 07:12:37;;;;;;;9.60;4.88;;;;;;;;;;4924776;28;20162;-66
2023/06/11 07:15:04;;;;;;;9.45;4.28;;;;;;;;;;4916791;29;20063;-66
2023/06/11 07:17:31;;;;;;;7.63;3.75;;;;;;;;;;4918340;29;20078;-66
2023/06/11 07:19:57;;;;;;;11.30;5.13;;;;;;;;;;4917450;29;20063;-66
2023/06/11 07:22:24;;;;;;;8.75;4.10;;;;;;;;;;4915047;29;20059;-66
2023/06/11 07:24:50;;;;;;;9.73;5.20;;;;;;;;;;4925855;28;20062;-66
2023/06/11 07:27:17;;;;;;;9.90;4.75;;;;;;;;;;4929379;29;20104;-66
2023/06/11 07:29:45;;;;;;;28.33;15.57;;;;;;;;;;4905443;29;20054;-67
2023/06/11 07:32:12;;;;;;;;;;;;;;;;;;4912221;29;20070;-66
2023/06/11 07:34:39;;;;;;;10.10;4.47;;;;;;;;;;4915976;29;19927;-69
2023/06/11 07:37:06;;;;;;;8.05;4.50;;;;;;;;;;4916811;28;20051;-66
2023/06/11 07:39:32;;;;;;;8.57;5.00;;;;;;;;;;4915361;29;20083;-67
2023/06/11 07:41:59;;;;;;;10.45;4.43;;;;;;;;;;4929350;28;20079;-67
2023/06/11 07:44:26;;;;;;;13.25;5.35;;;;;;;;;;4920838;29;20059;-68
2023/06/11 07:46:53;;;;;;;9.13;5.03;;;;;;;;;;4919224;28;20058;-67
2023/06/11 07:49:20;;;;;;;8.48;3.95;;;;;;;;;;4921204;28;20143;-67
2023/06/11 07:51:47;;;;;;;8.10;4.28;;;;;;;;;;4935360;29;20142;-68
2023/06/11 07:54:13;;;;;;;8.32;4.25;;;;;;;;;;4915954;29;20055;-67
2023/06/11 07:56:40;;;;;;;9.02;4.90;;;;;;;;;;4930772;29;20054;-67
2023/06/11 07:59:08;;;;;;;9.18;4.78;;;;;;;;;;4917276;29;20131;-66
2023/06/11 08:01:35;;;;;;;10.80;5.15;;;;;;;;;;4935934;29;20087;-67
2023/06/11 08:04:06;;;;;;;8.48;4.47;;;;;;;;;;4914935;28;20055;-67
2023/06/11 08:06:33;;;;;;;9.63;4.82;;;;;;;;;;4919194;28;20127;-68
2023/06/11 08:08:59;;;;;;;9.48;3.90;;;;;;;;;;4920364;29;20056;-67
2023/06/11 08:11:26;;;;;;;7.90;4.00;;;;;;;;;;4921212;28;20090;-66
2023/06/11 08:13:55;;;;;;;10.40;4.07;;;;;;;;;;4930753;28;20051;-69
2023/06/11 08:16:22;;;;;;;9.57;5.07;;;;;;;;;;4934560;29;20051;-69
2023/06/11 08:18:48;;;;;;;9.20;5.15;;;;;;;;;;4925999;29;20060;-68
2023/06/11 08:21:16;;;;;;;9.50;4.68;;;;;;;;;;4916908;29;20054;-66
2023/06/11 08:23:43;;;;;;;9.85;3.97;;;;;;;;;;4922156;29;20051;-68
2023/06/11 08:26:09;;;;;;;9.63;4.63;;;;;;;;;;4912912;28;20361;-66
2023/06/11 08:28:36;;;;;;;10.50;5.93;;;;;;;;;;4937412;29;20051;-67
2023/06/11 08:31:02;;;;;;;9.27;4.70;;;;;;;;;;4916921;29;20078;-66
2023/06/11 08:33:29;;;;;;;7.70;4.05;;;;;;;;;;4919433;29;20131;-67
2023/06/11 08:36:03;;;;;;;9.23;4.07;;;;;;;;;;4903884;28;20078;-67
2023/06/11 08:38:31;;;;;;;7.85;4.03;;;;;;;;;;4911519;29;20047;-67
2023/06/11 08:40:57;;;;;;;6.75;3.78;;;;;;;;;;4934332;28;20058;-68
2023/06/11 08:43:24;;;;;;;7.97;5.10;;;;;;;;;;4922925;29;20059;-67
2023/06/11 08:45:51;;;;;;;7.93;4.43;;;;;;;;;;4906582;28;20134;-68
2023/06/11 08:48:20;;;;;;;6.70;4.25;;;;;;;;;;4919324;29;20056;-67
2023/06/11 08:50:47;;;;;;;9.50;4.43;;;;;;;;;;4928940;29;20044;-69
2023/06/11 08:53:14;;;;;;;7.53;4.03;;;;;;;;;;4937874;28;20142;-67
2023/06/11 08:55:52;;;;;;;;;;;;;;;;;;;;;
2023/06/11 08:58:20;;;;;;;8.70;4.85;;;;;;;;;;4911987;29;20063;-68
2023/06/11 09:00:47;;;;;;;9.75;4.10;;;;;;;;;;4920135;29;20315;-68
2023/06/11 09:03:23;;;;;;;6.72;3.83;;;;;;;;;;4926058;29;20062;-68
2023/06/11 09:05:50;;;;;;;8.93;4.85;;;;;;;;;;4922028;28;20047;-69
2023/06/11 09:08:18;;;;;;;16.57;8.60;;;;;;;;;;4930236;28;20113;-69
2023/06/11 09:10:52;;;;;;;9.88;4.85;;;;;;;;;;4924275;28;20312;-69
2023/06/11 09:13:19;;;;;;;14.13;6.10;;;;;;;;;;4926607;28;20063;-69
2023/06/11 09:15:49;;;;;;;8.98;4.07;;;;;;;;;;4914770;28;20055;-69
2023/06/11 09:18:19;;;;;;;7.13;3.80;;;;;;;;;;4923067;28;20067;-69
2023/06/11 09:20:48;;;;;;;7.05;3.63;;;;;;;;;;4937650;29;20182;-70
2023/06/11 09:23:24;;;;;;;6.93;3.80;;;;;;;;;;4922828;29;20070;-68
2023/06/11 09:25:52;;;;;;;11.20;4.40;;;;;;;;;;4917855;29;20226;-70
2023/06/11 09:28:18;;;;;;;;;;;;;;;;;;4905019;29;20068;-69
2023/06/11 09:30:53;;;;;;;8.27;4.20;;;;;;;;;;4901443;29;20061;-68
2023/06/11 09:33:19;;;;;;;8.02;3.80;;;;;;;;;;4906516;29;20056;-68
2023/06/11 09:35:46;;;;;;;9.15;3.45;;;;;;;;;;4921823;29;20055;-68
2023/06/11 09:38:15;;;;;;;7.17;4.23;;;;;;;;;;4929440;28;20051;-69
2023/06/11 09:40:41;;;;;;;;;;;;;;;;;;4939131;29;20059;-69
2023/06/11 09:43:09;;;;;;;7.20;3.63;;;;;;;;;;4936669;28;19973;-67
2023/06/11 09:45:36;;;;;;;5.93;3.60;;;;;;;;;;4909754;29;20055;-67
2023/06/11 09:48:03;;;;;;;9.70;4.45;;;;;;;;;;4933042;28;20058;-68
2023/06/11 09:50:31;;;;;;;11.35;4.05;;;;;;;;;;4940474;29;20102;-66
2023/06/11 09:52:59;;;;;;;8.90;3.92;;;;;;;;;;4936222;28;20059;-68
2023/06/11 09:55:26;;;;;;;7.95;3.92;;;;;;;;;;4916691;28;20048;-68
2023/06/11 09:57:53;;;;;;;5.15;3.35;;;;;;;;;;4916499;28;20142;-69
2023/06/11 10:00:21;;;;;;;8.65;4.65;;;;;;;;;;4922071;29;20161;-69
2023/06/11 10:02:50;;;;;;;8.80;5.28;;;;;;;;;;4943188;29;20059;-68
2023/06/11 10:05:16;;;;;;;10.18;4.10;;;;;;;;;;4922184;28;20062;-70
2023/06/11 10:07:45;;;;;;;8.75;4.15;;;;;;;;;;4919537;29;20055;-68
2023/06/11 10:10:12;;;;;;;6.93;3.30;;;;;;;;;;4931480;28;20229;-69
2023/06/11 10:12:43;;;;;;;8.07;4.03;;;;;;;;;;4926614;29;20050;-68
2023/06/11 10:15:13;;;;;;;8.35;3.58;;;;;;;;;;4909830;29;20063;-68
2023/06/11 10:18:12;;;;;;;5.85;3.03;;;;;;;;;;4937525;29;20055;-68
2023/06/11 10:20:51;;;;;;;7.60;3.92;;;;;;;;;;4935225;28;20165;-68
2023/06/11 10:23:22;;;;;;;8.63;4.15;;;;;;;;;;4940569;28;20102;-68
2023/06/11 10:25:48;;;;;;;;;;;;;;;;;;4900556;28;20096;-66
2023/06/11 10:28:16;;;;;;;6.78;3.45;;;;;;;;;;4938349;29;19998;-67
2023/06/11 10:30:51;;;;;;;8.50;3.17;;;;;;;;;;4918032;29;20059;-66
2023/06/11 10:33:30;;;;;;;7.18;3.83;;;;;;;;;;4916778;29;20074;-66
2023/06/11 10:36:21;;;;;;;7.00;4.03;;;;;;;;;;4883924;29;20092;-67
2023/06/11 10:38:47;;;;;;;9.02;3.67;;;;;;;;;;4904206;29;20068;-69
2023/06/11 10:41:30;;;;;;;10.13;3.60;;;;;;;;;;4902383;29;20060;-70
2023/06/11 10:43:58;;;;;;;8.98;3.95;;;;;;;;;;4899479;29;20044;-70
2023/06/11 10:46:24;;;;;;;6.45;3.70;;;;;;;;;;4865372;29;20117;-71
2023/06/11 10:48:55;;;;;;;9.32;3.60;;;;;;;;;;4908119;29;20059;-69
2023/06/11 10:51:37;;;;;;;8.93;3.97;;;;;;;;;;4917499;29;20056;-69
2023/06/11 10:54:03;;;;;;;5.10;3.00;;;;;;;;;;4917023;29;20056;-66
2023/06/11 10:56:30;;;;;;;11.15;4.00;;;;;;;;;;4897944;29;20060;-68
2023/06/11 10:58:56;;;;;;;7.85;3.50;;;;;;;;;;4907243;29;20132;-68
2023/06/11 11:01:23;;;;;;;12.02;4.47;;;;;;;;;;4903885;29;20230;-70
2023/06/11 11:03:50;;;;;;;11.68;4.15;;;;;;;;;;4920036;29;20056;-68
2023/06/11 11:06:26;;;;;;;10.45;4.05;;;;;;;;;;4899857;29;20067;-69
2023/06/11 11:08:56;;;;;;;7.65;3.85;;;;;;;;;;4902923;29;20060;-71
2023/06/11 11:11:23;;;;;;;7.78;3.30;;;;;;;;;;4898282;29;20159;-71
2023/06/11 11:16:55;;;;;;;6.47;3.45;;;;;;;;;;4866851;29;20106;-70
2023/06/11 11:19:36;;;;;;;6.13;3.25;;;;;;;;;;4868113;29;20550;-70
2023/06/11 11:22:12;;;;;;;5.45;3.00;;;;;;;;;;4857311;29;20067;-70
2023/06/11 11:24:39;;;;;;;6.50;3.47;;;;;;;;;;4865519;29;20071;-69
2023/06/11 11:27:06;;;;;;;6.57;3.17;;;;;;;;;;4817254;29;20105;-69
2023/06/11 11:29:37;;;;;;;5.63;3.33;;;;;;;;;;4867391;29;20069;-70
2023/06/11 11:32:03;;;;;;;;;;;;;;;;;;4843004;29;20057;-70
2023/06/11 11:34:55;;;;;;;5.75;3.17;;;;;;;;;;4872579;29;19931;-70
2023/06/11 11:37:33;;;;;;;7.15;2.78;;;;;;;;;;4857233;29;20060;-69
2023/06/11 11:40:06;;;;;;;6.60;3.00;;;;;;;;;;4896172;29;20267;-69
2023/06/11 11:42:51;;;;;;;5.70;3.08;;;;;;;;;;4900120;29;20052;-69
2023/06/11 11:45:21;;;;;;;4.40;2.75;;;;;;;;;;4893202;29;20083;-69
2023/06/11 11:48:00;;;;;;;5.38;3.10;;;;;;;;;;4912632;29;20715;-69
2023/06/11 11:53:40;;;;;;;4.88;2.83;;;;;;;;;;4902866;29;20198;-70
2023/06/11 11:56:06;;;;;;;4.93;2.70;;;;;;;;;;4896096;29;20087;-69
2023/06/11 11:58:37;;;;;;;4.30;2.28;;;;;;;;;;4917058;29;20066;-69
2023/06/11 12:01:04;;;;;;;7.03;3.35;;;;;;;;;;4906453;29;20068;-70
2023/06/11 12:03:31;;;;;;;6.68;2.70;;;;;;;;;;4902647;29;20127;-71
2023/06/11 12:05:59;;;;;;;4.93;3.08;;;;;;;;;;4898488;29;20074;-69
2023/06/11 12:08:26;;;;;;;10.30;2.83;;;;;;;;;;4893493;29;20142;-70
2023/06/11 12:10:54;;;;;;;4.95;2.58;;;;;;;;;;4905095;29;20055;-70
2023/06/11 12:13:21;;;;;;;4.70;2.33;;;;;;;;;;4898399;29;20090;-70
2023/06/11 12:15:50;;;;;;;5.82;2.60;;;;;;;;;;4893782;29;20168;-71
2023/06/11 12:18:19;;;;;;;5.35;2.38;;;;;;;;;;4891901;29;20072;-70
2023/06/11 12:20:47;;;;;;;5.70;2.40;;;;;;;;;;4899790;29;20063;-70
2023/06/11 12:23:14;;;;;;;3.85;2.17;;;;;;;;;;4901358;29;20052;-69
2023/06/11 12:25:42;;;;;;;5.93;2.72;;;;;;;;;;4909938;29;20155;-71
2023/06/11 12:28:08;;;;;;;;;;;;;;;;;;4908447;29;20052;-70
2023/06/11 12:30:36;;;;;;;3.83;2.33;;;;;;;;;;4902122;29;19923;-70
2023/06/11 12:33:03;;;;;;;5.28;2.00;;;;;;;;;;4920450;29;20095;-70
2023/06/11 12:35:30;;;;;;;9.07;2.83;;;;;;;;;;4937426;28;20055;-69
2023/06/11 12:38:00;;;;;;;10.13;2.70;;;;;;;;;;4937151;29;20063;-69
2023/06/11 12:40:30;;;;;;;4.45;2.40;;;;;;;;;;4940862;28;20073;-69
2023/06/11 12:42:59;;;;;;;4.60;2.30;;;;;;;;;;4944218;29;20087;-68
2023/06/11 12:45:26;;;;;;;5.20;2.65;;;;;;;;;;4937914;28;20058;-69
2023/06/11 12:47:56;;;;;;;10.50;2.92;;;;;;;;;;4939826;28;20130;-69
2023/06/11 12:50:25;;;;;;;7.05;2.60;;;;;;;;;;4933153;28;20185;-70
2023/06/11 12:52:52;;;;;;;9.13;3.30;;;;;;;;;;4945674;29;20051;-69
2023/06/11 12:55:19;;;;;;;5.38;2.63;;;;;;;;;;4934789;29;20055;-70
2023/06/11 12:57:50;;;;;;;5.53;2.35;;;;;;;;;;4893612;28;20055;-69
2023/06/11 13:00:17;;;;;;;5.35;3.28;;;;;;;;;;4934735;28;20887;-68
2023/06/11 13:02:48;;;;;;;6.13;2.78;;;;;;;;;;4925639;29;20114;-68
2023/06/11 13:05:16;;;;;;;5.32;3.13;;;;;;;;;;4938250;28;20069;-69
2023/06/11 13:07:45;;;;;;;5.05;2.28;;;;;;;;;;4930743;29;20058;-70
2023/06/11 13:10:16;;;;;;;5.80;2.70;;;;;;;;;;4916949;28;20058;-71
2023/06/11 13:12:45;;;;;;;5.63;2.55;;;;;;;;;;4925732;29;20209;-71
2023/06/11 13:15:14;;;;;;;9.02;4.00;;;;;;;;;;4940173;29;20077;-69
2023/06/11 13:17:40;;;;;;;5.40;3.03;;;;;;;;;;4928830;28;20055;-68
2023/06/11 13:20:07;;;;;;;4.15;2.72;;;;;;;;;;4934919;28;20055;-68
2023/06/11 13:22:35;;;;;;;6.87;2.70;;;;;;;;;;4937264;28;20203;-69
2023/06/11 13:25:02;;;;;;;3.97;2.50;;;;;;;;;;4924475;29;20333;-68
2023/06/11 13:27:31;;;;;;;4.80;3.00;;;;;;;;;;4926762;28;20055;-68
2023/06/11 13:30:01;;;;;;;6.25;3.20;;;;;;;;;;4932559;29;20086;-69
2023/06/11 13:32:27;;;;;;;7.38;2.90;;;;;;;;;;4939024;28;20067;-68
2023/06/11 13:34:54;;;;;;;5.38;2.67;;;;;;;;;;4940682;29;20129;-69
2023/06/11 13:37:20;;;;;;;4.50;2.63;;;;;;;;;;4915969;28;20067;-68
2023/06/11 13:39:49;;;;;;;9.13;3.08;;;;;;;;;;4923618;29;20066;-67
2023/06/11 13:42:15;;;;;;;7.93;2.78;;;;;;;;;;4929642;29;20150;-68
2023/06/11 13:44:43;;;;;;;5.43;2.60;;;;;;;;;;4942652;29;20067;-70
2023/06/11 13:47:09;;;;;;;7.22;2.97;;;;;;;;;;4921049;28;20074;-67
2023/06/11 13:49:36;;;;;;;5.40;2.97;;;;;;;;;;4948843;28;20179;-67
2023/06/11 13:52:02;;;;;;;5.63;2.72;;;;;;;;;;4913696;28;20072;-67
2023/06/11 13:54:32;;;;;;;6.45;3.00;;;;;;;;;;4942731;28;20118;-68
2023/06/11 13:57:01;;;;;;;7.03;2.83;;;;;;;;;;4940723;29;20063;-66
2023/06/11 13:59:27;;;;;;;12.10;5.43;;;;;;;;;;4922375;29;20062;-67
2023/06/11 14:02:00;;;;;;;4.68;2.92;;;;;;;;;;4938767;29;20066;-68
2023/06/11 14:04:30;;;;;;;6.70;3.20;;;;;;;;;;4938294;28;20061;-67
2023/06/11 14:06:56;;;;;;;7.10;2.90;;;;;;;;;;4907622;29;20066;-67
2023/06/11 14:09:23;;;;;;;6.45;2.63;;;;;;;;;;4937500;28;20067;-66
2023/06/11 14:11:49;;;;;;;7.47;3.20;;;;;;;;;;4937821;28;20043;-67
2023/06/11 14:14:19;;;;;;;5.97;3.23;;;;;;;;;;4915323;29;20067;-67
2023/06/11 14:16:45;;;;;;;7.90;3.72;;;;;;;;;;4937550;28;20065;-67
2023/06/11 14:19:15;;;;;;;6.18;3.45;;;;;;;;;;4923152;28;20095;-66
2023/06/11 14:21:41;;;;;;;8.93;3.17;;;;;;;;;;4928040;29;20400;-67
2023/06/11 14:24:09;;;;;;;5.03;2.85;;;;;;;;;;4932825;28;20071;-67
2023/06/11 14:26:37;;;;;;;8.57;3.35;;;;;;;;;;4935282;29;20062;-67
2023/06/11 14:29:03;;;;;;;9.70;3.50;;;;;;;;;;4938198;28;20069;-67
2023/06/11 14:31:34;;;;;;;5.63;3.17;;;;;;;;;;4941571;28;20059;-67
2023/06/11 14:34:00;;;;;;;9.57;2.90;;;;;;;;;;4936090;28;20148;-70
2023/06/11 14:36:27;;;;;;;51.15;34.83;;;;;;;;;;4929564;29;20059;-69
2023/06/11 14:38:53;;;;;;;8.65;4.68;;;;;;;;;;4939017;28;20166;-67
2023/06/11 14:41:20;;;;;;;6.43;3.10;;;;;;;;;;4940889;28;20063;-67
2023/06/11 14:43:48;;;;;;;11.33;3.00;;;;;;;;;;4941955;28;20063;-67
2023/06/11 14:46:17;;;;;;;6.20;3.08;;;;;;;;;;4901911;28;20051;-68
2023/06/11 14:48:45;;;;;;;6.22;3.45;;;;;;;;;;4938741;29;20066;-66
2023/06/11 14:51:15;;;;;;;7.97;2.97;;;;;;;;;;4934512;28;20070;-67
2023/06/11 14:53:42;;;;;;;6.03;3.25;;;;;;;;;;4942380;29;20146;-67
2023/06/11 14:56:08;;;;;;;10.65;6.80;;;;;;;;;;4920734;28;20063;-69
2023/06/11 14:58:35;;;;;;;14.13;3.35;;;;;;;;;;4922001;29;20054;-67
2023/06/11 15:01:04;;;;;;;6.60;3.25;;;;;;;;;;4924088;29;20079;-67